createdAt,value
2019-02-05T00:00:56.752Z,0.00
2019-02-05T00:01:56.772Z,0.00
2019-02-05T00:02:56.740Z,0.00
2019-02-05T00:03:56.724Z,0.00
2019-02-05T00:04:56.724Z,0.00
2019-02-05T00:05:56.694Z,0.00
2019-02-05T00:06:56.683Z,0.00
2019-02-05T00:07:56.693Z,0.00
2019-02-05T00:08:56.704Z,0.00
2019-02-05T00:09:56.707Z,0.00
2019-02-05T00:10:56.627Z,0.00
2019-02-05T00:11:56.648Z,0.00
2019-02-05T00:12:56.639Z,0.00
2019-02-05T00:14:05.393Z,0.00
2019-02-05T00:16:01.080Z,0.00
2019-02-05T00:17:01.056Z,0.00
2019-02-05T00:18:01.042Z,0.00
2019-02-05T00:19:01.050Z,0.00
2019-02-05T00:20:01.017Z,0.00
2019-02-05T00:21:01.007Z,0.00
2019-02-05T00:22:00.994Z,0.00
2019-02-05T00:23:00.986Z,0.00
2019-02-05T00:24:00.961Z,0.00
2019-02-05T00:25:00.948Z,0.00
2019-02-05T00:26:06.243Z,0.00
2019-02-05T00:27:00.923Z,0.00
2019-02-05T00:28:00.913Z,0.00
2019-02-05T00:29:00.900Z,0.00
2019-02-05T00:30:00.882Z,0.00
2019-02-05T00:31:00.895Z,0.00
2019-02-05T00:32:00.867Z,0.00
2019-02-05T00:33:00.849Z,0.00
2019-02-05T00:34:00.832Z,0.00
2019-02-05T00:35:00.828Z,0.00
2019-02-05T00:36:00.810Z,0.00
2019-02-05T00:37:00.808Z,0.00
2019-02-05T00:38:00.788Z,0.00
2019-02-05T00:39:00.779Z,0.00
2019-02-05T00:40:00.766Z,0.00
2019-02-05T00:41:00.753Z,0.00
2019-02-05T00:42:00.746Z,0.00
2019-02-05T00:43:00.735Z,0.00
2019-02-05T00:44:00.712Z,0.00
2019-02-05T00:45:00.703Z,0.00
2019-02-05T00:46:00.694Z,0.00
2019-02-05T00:47:00.689Z,0.00
2019-02-05T00:48:00.682Z,0.00
2019-02-05T00:49:00.644Z,0.00
2019-02-05T00:50:00.634Z,0.00
2019-02-05T00:51:00.628Z,0.00
2019-02-05T00:52:00.606Z,0.00
2019-02-05T00:53:00.603Z,0.00
2019-02-05T00:54:00.622Z,0.00
2019-02-05T00:55:00.577Z,0.00
2019-02-05T00:56:00.558Z,0.00
2019-02-05T00:57:00.564Z,0.00
2019-02-05T00:58:00.551Z,0.00
2019-02-05T00:59:00.533Z,0.00
2019-02-05T01:00:00.586Z,0.00
2019-02-05T01:01:00.501Z,0.00
2019-02-05T01:02:00.488Z,0.00
2019-02-05T01:03:00.484Z,0.00
2019-02-05T01:04:00.474Z,0.00
2019-02-05T01:05:00.482Z,0.00
2019-02-05T01:06:00.438Z,0.00
2019-02-05T01:07:00.430Z,0.00
2019-02-05T01:08:00.411Z,0.00
2019-02-05T01:09:00.419Z,0.00
2019-02-05T01:10:00.383Z,0.00
2019-02-05T01:11:00.369Z,0.00
2019-02-05T01:12:00.362Z,0.00
2019-02-05T01:13:00.355Z,0.00
2019-02-05T01:14:00.346Z,0.00
2019-02-05T01:15:00.476Z,0.00
2019-02-05T01:16:00.312Z,0.00
2019-02-05T01:17:00.298Z,0.00
2019-02-05T01:18:00.281Z,0.00
2019-02-05T01:19:00.264Z,0.00
2019-02-05T01:20:00.263Z,0.00
2019-02-05T01:21:00.244Z,0.00
2019-02-05T01:22:00.238Z,0.00
2019-02-05T01:23:00.218Z,0.00
2019-02-05T01:24:00.220Z,0.00
2019-02-05T01:25:00.406Z,0.00
2019-02-05T01:26:00.182Z,0.00
2019-02-05T01:27:00.170Z,0.00
2019-02-05T01:28:00.170Z,0.00
2019-02-05T01:29:00.161Z,0.00
2019-02-05T01:30:00.353Z,0.00
2019-02-05T01:31:00.114Z,0.00
2019-02-05T01:32:00.110Z,0.00
2019-02-05T01:33:00.096Z,0.00
2019-02-05T01:34:00.080Z,0.00
2019-02-05T01:35:00.100Z,0.00
2019-02-05T01:36:00.064Z,0.00
2019-02-05T01:37:00.046Z,0.00
2019-02-05T01:38:00.030Z,0.00
2019-02-05T01:39:00.026Z,0.00
2019-02-05T01:40:00.017Z,0.00
2019-02-05T01:41:00.034Z,0.00
2019-02-05T01:41:59.982Z,0.00
2019-02-05T01:42:59.983Z,0.00
2019-02-05T01:43:59.958Z,0.00
2019-02-05T01:44:59.954Z,0.00
2019-02-05T01:45:59.949Z,0.00
2019-02-05T01:46:59.920Z,0.00
2019-02-05T01:47:59.913Z,0.00
2019-02-05T01:48:59.995Z,0.00
2019-02-05T01:49:59.895Z,0.00
2019-02-05T01:50:59.886Z,0.00
2019-02-05T01:51:59.860Z,0.00
2019-02-05T01:52:59.845Z,0.00
2019-02-05T01:53:59.826Z,0.00
2019-02-05T01:54:59.816Z,0.00
2019-02-05T01:55:59.852Z,0.00
2019-02-05T01:56:59.827Z,0.00
2019-02-05T01:57:59.804Z,0.00
2019-02-05T01:58:59.779Z,0.00
2019-02-05T01:59:59.756Z,0.00
2019-02-05T02:00:59.753Z,0.00
2019-02-05T02:01:59.737Z,0.00
2019-02-05T02:02:59.724Z,0.00
2019-02-05T02:03:59.707Z,0.00
2019-02-05T02:04:59.693Z,0.00
2019-02-05T02:05:59.695Z,0.00
2019-02-05T02:06:59.671Z,0.00
2019-02-05T02:07:59.662Z,0.00
2019-02-05T02:09:08.308Z,0.00
2019-02-05T02:11:04.120Z,0.00
2019-02-05T02:12:04.083Z,0.00
2019-02-05T02:13:04.078Z,0.00
2019-02-05T02:14:04.053Z,0.00
2019-02-05T02:15:04.052Z,0.00
2019-02-05T02:16:04.044Z,0.00
2019-02-05T02:17:04.018Z,0.00
2019-02-05T02:18:04.001Z,0.00
2019-02-05T02:19:03.988Z,0.00
2019-02-05T02:20:03.976Z,0.00
2019-02-05T02:21:03.965Z,0.00
2019-02-05T02:22:03.945Z,0.00
2019-02-05T02:23:03.937Z,0.00
2019-02-05T02:24:03.922Z,0.00
2019-02-05T02:25:03.921Z,0.00
2019-02-05T02:26:03.923Z,0.00
2019-02-05T02:27:03.883Z,0.00
2019-02-05T02:28:03.972Z,0.00
2019-02-05T02:29:03.934Z,0.00
2019-02-05T02:30:03.853Z,0.00
2019-02-05T02:31:03.834Z,0.00
2019-02-05T02:32:03.825Z,0.00
2019-02-05T02:33:03.809Z,0.00
2019-02-05T02:34:03.802Z,0.00
2019-02-05T02:35:03.779Z,0.00
2019-02-05T02:36:03.777Z,0.00
2019-02-05T02:37:03.754Z,0.00
2019-02-05T02:38:03.745Z,0.00
2019-02-05T02:39:03.737Z,0.00
2019-02-05T02:40:03.719Z,0.00
2019-02-05T02:41:03.704Z,0.00
2019-02-05T02:42:03.695Z,0.00
2019-02-05T02:43:03.687Z,0.00
2019-02-05T02:44:03.675Z,0.00
2019-02-05T02:45:03.658Z,0.00
2019-02-05T02:46:03.653Z,0.00
2019-02-05T02:47:03.631Z,0.00
2019-02-05T02:48:03.619Z,0.00
2019-02-05T02:49:03.605Z,0.00
2019-02-05T02:50:03.596Z,0.00
2019-02-05T02:51:03.598Z,0.00
2019-02-05T02:52:03.562Z,0.00
2019-02-05T02:53:03.591Z,0.00
2019-02-05T02:54:03.537Z,0.00
2019-02-05T02:55:03.536Z,0.00
2019-02-05T02:56:03.508Z,0.00
2019-02-05T02:57:05.080Z,0.00
2019-02-05T03:14:01.656Z,0.00
2019-02-05T03:15:01.598Z,0.00
2019-02-05T03:16:01.741Z,0.00
2019-02-05T03:17:01.587Z,0.00
2019-02-05T03:18:01.545Z,0.00
2019-02-05T03:19:01.521Z,0.00
2019-02-05T03:20:01.505Z,0.00
2019-02-05T03:21:01.589Z,0.00
2019-02-05T03:22:01.487Z,0.00
2019-02-05T03:23:01.461Z,0.00
2019-02-05T03:24:01.462Z,0.00
2019-02-05T03:25:01.553Z,0.00
2019-02-05T03:26:01.424Z,0.00
2019-02-05T03:27:01.413Z,0.00
2019-02-05T03:28:01.391Z,0.00
2019-02-05T03:29:01.382Z,0.00
2019-02-05T03:30:01.364Z,0.00
2019-02-05T03:31:01.399Z,0.00
2019-02-05T03:32:01.339Z,0.00
2019-02-05T03:33:01.322Z,0.00
2019-02-05T03:34:01.313Z,0.00
2019-02-05T03:35:01.299Z,0.00
2019-02-05T03:36:01.286Z,0.00
2019-02-05T03:37:01.274Z,0.00
2019-02-05T03:38:01.249Z,0.00
2019-02-05T03:39:01.238Z,0.00
2019-02-05T03:40:01.214Z,0.00
2019-02-05T03:41:01.205Z,0.00
2019-02-05T03:42:01.197Z,0.00
2019-02-05T03:43:01.190Z,0.00
2019-02-05T03:44:01.181Z,0.00
2019-02-05T03:45:01.155Z,0.00
2019-02-05T03:46:01.147Z,0.00
2019-02-05T03:47:01.121Z,0.00
2019-02-05T03:48:01.113Z,0.00
2019-02-05T03:49:01.097Z,0.00
2019-02-05T03:50:01.077Z,0.00
2019-02-05T03:51:01.076Z,0.00
2019-02-05T03:52:01.075Z,0.00
2019-02-05T03:53:01.042Z,0.00
2019-02-05T03:54:01.025Z,0.00
2019-02-05T03:55:01.010Z,0.00
2019-02-05T03:56:01.021Z,0.00
2019-02-05T03:57:00.989Z,0.00
2019-02-05T03:58:00.995Z,0.00
2019-02-05T03:59:00.991Z,0.00
2019-02-05T04:00:01.181Z,0.00
2019-02-05T04:01:00.929Z,0.00
2019-02-05T04:02:00.923Z,0.00
2019-02-05T04:03:00.905Z,0.00
2019-02-05T04:04:00.903Z,0.00
2019-02-05T04:05:00.894Z,0.00
2019-02-05T04:06:00.866Z,0.00
2019-02-05T04:07:00.851Z,0.00
2019-02-05T04:08:00.838Z,0.00
2019-02-05T04:09:00.821Z,0.00
2019-02-05T04:10:00.812Z,0.00
2019-02-05T04:11:00.802Z,0.00
2019-02-05T04:12:01.677Z,0.00
2019-02-05T04:13:00.772Z,0.00
2019-02-05T04:14:00.764Z,0.00
2019-02-05T04:15:00.738Z,0.00
2019-02-05T04:16:00.739Z,0.00
2019-02-05T04:17:00.714Z,0.00
2019-02-05T04:18:00.703Z,0.00
2019-02-05T04:19:00.694Z,0.00
2019-02-05T04:20:00.676Z,0.00
2019-02-05T04:21:00.663Z,0.00
2019-02-05T04:22:00.656Z,0.00
2019-02-05T04:23:00.627Z,0.00
2019-02-05T04:24:00.627Z,0.00
2019-02-05T04:25:00.608Z,0.00
2019-02-05T04:26:00.588Z,0.00
2019-02-05T04:27:00.579Z,0.00
2019-02-05T04:28:00.564Z,0.00
2019-02-05T04:29:00.549Z,0.00
2019-02-05T04:30:00.563Z,0.00
2019-02-05T04:31:00.534Z,0.00
2019-02-05T04:32:00.507Z,0.00
2019-02-05T04:33:00.503Z,0.00
2019-02-05T04:34:00.499Z,0.00
2019-02-05T04:35:00.476Z,0.00
2019-02-05T04:36:00.457Z,0.00
2019-02-05T04:37:00.444Z,0.00
2019-02-05T04:38:00.442Z,0.00
2019-02-05T04:39:00.416Z,0.00
2019-02-05T04:40:00.404Z,0.00
2019-02-05T04:41:00.401Z,0.00
2019-02-05T04:42:00.396Z,0.00
2019-02-05T04:43:00.375Z,0.00
2019-02-05T04:44:00.360Z,0.00
2019-02-05T04:45:00.334Z,0.00
2019-02-05T04:46:00.329Z,0.00
2019-02-05T04:47:00.301Z,0.00
2019-02-05T04:48:00.308Z,0.00
2019-02-05T04:49:00.285Z,0.00
2019-02-05T04:50:00.268Z,0.00
2019-02-05T04:51:00.248Z,0.00
2019-02-05T04:52:00.250Z,0.00
2019-02-05T04:53:00.227Z,0.00
2019-02-05T04:54:00.214Z,0.00
2019-02-05T04:55:00.373Z,0.00
2019-02-05T04:56:00.188Z,0.00
2019-02-05T04:57:00.168Z,0.00
2019-02-05T04:58:01.623Z,0.00
2019-02-05T04:59:00.151Z,0.00
2019-02-05T05:00:00.478Z,0.00
2019-02-05T05:01:00.117Z,0.00
2019-02-05T05:02:00.100Z,0.00
2019-02-05T05:03:00.081Z,0.00
2019-02-05T05:04:00.081Z,0.00
2019-02-05T05:05:00.105Z,0.00
2019-02-05T05:06:00.043Z,0.00
2019-02-05T05:07:00.061Z,0.00
2019-02-05T05:08:00.013Z,0.00
2019-02-05T05:09:00.002Z,0.00
2019-02-05T05:09:59.990Z,0.00
2019-02-05T05:10:59.991Z,0.00
2019-02-05T05:11:59.965Z,0.00
2019-02-05T05:12:59.953Z,0.00
2019-02-05T05:13:59.934Z,0.00
2019-02-05T05:14:59.940Z,0.00
2019-02-05T05:15:59.902Z,0.00
2019-02-05T05:16:59.899Z,0.00
2019-02-05T05:17:59.896Z,0.00
2019-02-05T05:18:59.863Z,0.00
2019-02-05T05:19:59.844Z,0.00
2019-02-05T05:20:59.828Z,0.00
2019-02-05T05:21:59.818Z,0.00
2019-02-05T05:22:59.809Z,0.00
2019-02-05T05:23:59.806Z,0.00
2019-02-05T05:24:59.776Z,0.00
2019-02-05T05:25:59.765Z,0.00
2019-02-05T05:26:59.763Z,0.00
2019-02-05T05:28:09.778Z,0.00
2019-02-05T05:28:59.724Z,0.00
2019-02-05T05:29:59.708Z,0.00
2019-02-05T05:30:59.692Z,0.00
2019-02-05T05:31:59.683Z,0.00
2019-02-05T05:32:59.672Z,0.00
2019-02-05T05:33:59.647Z,0.00
2019-02-05T05:34:59.630Z,0.00
2019-02-05T05:35:59.618Z,0.00
2019-02-05T05:36:59.629Z,0.00
2019-02-05T05:37:59.620Z,0.00
2019-02-05T05:38:59.578Z,0.00
2019-02-05T05:39:59.569Z,0.00
2019-02-05T05:40:59.550Z,0.00
2019-02-05T05:41:59.539Z,0.00
2019-02-05T05:42:59.524Z,0.00
2019-02-05T05:43:59.527Z,0.00
2019-02-05T05:44:59.493Z,0.00
2019-02-05T05:45:59.490Z,0.00
2019-02-05T05:46:59.470Z,0.00
2019-02-05T05:47:59.463Z,0.00
2019-02-05T05:48:59.440Z,0.00
2019-02-05T05:49:59.464Z,0.00
2019-02-05T05:50:59.437Z,0.00
2019-02-05T05:51:59.417Z,0.00
2019-02-05T05:52:59.405Z,0.00
2019-02-05T05:53:59.380Z,0.00
2019-02-05T05:54:59.369Z,0.00
2019-02-05T05:55:59.336Z,0.00
2019-02-05T05:56:59.331Z,0.00
2019-02-05T05:57:59.315Z,0.00
2019-02-05T05:58:59.312Z,0.00
2019-02-05T05:59:59.304Z,0.00
2019-02-05T06:00:59.267Z,0.00
2019-02-05T06:01:59.261Z,0.00
2019-02-05T06:02:59.250Z,0.00
2019-02-05T06:03:59.233Z,0.00
2019-02-05T06:04:59.215Z,0.00
2019-02-05T06:05:59.201Z,0.00
2019-02-05T06:06:59.186Z,0.00
2019-02-05T06:07:59.174Z,0.00
2019-02-05T06:08:59.167Z,0.00
2019-02-05T06:09:59.142Z,0.00
2019-02-05T06:10:59.142Z,0.00
2019-02-05T06:11:59.124Z,0.00
2019-02-05T06:12:59.107Z,0.00
2019-02-05T06:15:35.648Z,0.00
2019-02-05T06:16:32.844Z,0.00
2019-02-05T06:18:38.324Z,0.00
2019-02-05T06:19:37.920Z,0.00
2019-02-05T06:21:43.423Z,0.00
2019-02-05T06:22:43.398Z,0.00
2019-02-05T06:23:43.409Z,0.00
2019-02-05T06:24:43.384Z,4.00
2019-02-05T06:25:43.362Z,0.00
2019-02-05T06:26:43.278Z,0.00
2019-02-05T06:27:43.304Z,4.00
2019-02-05T06:28:43.263Z,4.00
2019-02-05T06:29:43.297Z,0.00
2019-02-05T06:30:43.277Z,4.00
2019-02-05T06:31:43.263Z,4.00
2019-02-05T06:32:43.214Z,4.00
2019-02-05T06:33:43.179Z,4.00
2019-02-05T06:34:43.184Z,8.00
2019-02-05T06:35:43.212Z,8.00
2019-02-05T06:36:43.170Z,8.00
2019-02-05T06:37:43.127Z,8.00
2019-02-05T06:38:44.741Z,8.00
2019-02-05T06:39:43.129Z,12.00
2019-02-05T06:42:15.242Z,16.00
2019-02-05T06:43:15.207Z,20.00
2019-02-05T06:44:15.223Z,20.00
2019-02-05T06:45:15.266Z,24.00
2019-02-05T06:46:15.167Z,24.00
2019-02-05T06:47:15.142Z,28.00
2019-02-05T06:48:15.125Z,32.00
2019-02-05T06:49:15.163Z,36.00
2019-02-05T06:50:15.205Z,36.00
2019-02-05T06:51:15.282Z,40.00
2019-02-05T06:52:15.079Z,44.00
2019-02-05T06:53:15.093Z,48.00
2019-02-05T06:54:15.045Z,52.00
2019-02-05T06:55:15.054Z,60.00
2019-02-05T06:56:23.945Z,60.00
2019-02-05T06:58:27.203Z,76.00
2019-02-05T06:59:19.493Z,80.00
2019-02-05T07:00:19.442Z,84.00
2019-02-05T07:01:19.440Z,92.00
2019-02-05T07:02:19.441Z,96.00
2019-02-05T07:03:19.412Z,100.00
2019-02-05T07:04:19.392Z,108.00
2019-02-05T07:05:19.379Z,112.00
2019-02-05T07:06:19.367Z,120.00
2019-02-05T07:07:19.385Z,128.00
2019-02-05T07:08:19.347Z,136.00
2019-02-05T07:09:19.334Z,144.00
2019-02-05T07:10:19.343Z,152.00
2019-02-05T07:11:19.932Z,160.00
2019-02-05T07:12:19.389Z,168.00
2019-02-05T07:13:19.364Z,172.00
2019-02-05T07:14:19.254Z,180.00
2019-02-05T07:15:19.267Z,192.00
2019-02-05T07:16:19.248Z,204.00
2019-02-05T07:17:19.278Z,208.00
2019-02-05T07:18:19.203Z,220.00
2019-02-05T07:19:19.204Z,224.00
2019-02-05T07:20:19.193Z,232.00
2019-02-05T07:21:19.219Z,236.00
2019-02-05T07:22:19.167Z,244.00
2019-02-05T07:23:19.133Z,256.00
2019-02-05T07:24:19.191Z,260.00
2019-02-05T07:25:19.132Z,272.00
2019-02-05T07:26:19.121Z,276.00
2019-02-05T07:27:19.113Z,284.00
2019-02-05T07:28:19.081Z,288.00
2019-02-05T07:29:19.067Z,296.00
2019-02-05T07:30:19.067Z,300.00
2019-02-05T07:31:19.025Z,308.00
2019-02-05T07:32:19.006Z,312.00
2019-02-05T07:33:19.005Z,320.00
2019-02-05T07:34:21.207Z,328.00
2019-02-05T07:35:18.977Z,336.00
2019-02-05T07:36:18.974Z,344.00
2019-02-05T07:37:18.969Z,348.00
2019-02-05T07:38:18.941Z,356.00
2019-02-05T07:39:27.745Z,364.00
2019-02-05T07:41:23.413Z,372.00
2019-02-05T07:42:23.379Z,376.00
2019-02-05T07:43:23.358Z,376.00
2019-02-05T07:44:23.351Z,384.00
2019-02-05T07:45:23.349Z,388.00
2019-02-05T07:46:23.314Z,392.00
2019-02-05T07:47:23.573Z,396.00
2019-02-05T07:48:23.287Z,404.00
2019-02-05T07:49:23.276Z,404.00
2019-02-05T07:50:23.263Z,412.00
2019-02-05T07:51:23.257Z,412.00
2019-02-05T07:52:23.243Z,416.00
2019-02-05T07:53:23.235Z,420.00
2019-02-05T07:54:23.207Z,424.00
2019-02-05T07:55:23.199Z,432.00
2019-02-05T07:56:23.190Z,428.00
2019-02-05T07:57:23.168Z,432.00
2019-02-05T07:58:23.158Z,440.00
2019-02-05T07:59:23.135Z,436.00
2019-02-05T08:00:23.137Z,444.00
2019-02-05T08:01:23.117Z,444.00
2019-02-05T08:02:23.113Z,448.00
2019-02-05T08:03:23.101Z,452.00
2019-02-05T08:04:23.081Z,448.00
2019-02-05T08:05:23.062Z,452.00
2019-02-05T08:06:23.048Z,456.00
2019-02-05T08:07:23.095Z,456.00
2019-02-05T08:08:23.028Z,456.00
2019-02-05T08:09:23.017Z,456.00
2019-02-05T08:10:23.005Z,460.00
2019-02-05T08:11:23.008Z,468.00
2019-02-05T08:12:23.019Z,468.00
2019-02-05T08:13:22.960Z,472.00
2019-02-05T08:14:22.945Z,476.00
2019-02-05T08:15:22.944Z,480.00
2019-02-05T08:16:23.053Z,484.00
2019-02-05T08:17:22.940Z,476.00
2019-02-05T08:18:22.904Z,476.00
2019-02-05T08:19:22.878Z,480.00
2019-02-05T08:20:22.870Z,480.00
2019-02-05T08:21:22.868Z,484.00
2019-02-05T08:22:22.856Z,488.00
2019-02-05T08:23:22.856Z,492.00
2019-02-05T08:24:22.887Z,488.00
2019-02-05T08:25:22.809Z,484.00
2019-02-05T08:26:22.923Z,488.00
2019-02-05T08:27:22.892Z,492.00
2019-02-05T08:28:22.774Z,492.00
2019-02-05T08:29:22.755Z,492.00
2019-02-05T08:30:22.751Z,488.00
2019-02-05T08:31:22.735Z,492.00
2019-02-05T08:32:22.720Z,492.00
2019-02-05T08:33:22.705Z,492.00
2019-02-05T08:34:22.692Z,496.00
2019-02-05T08:35:22.685Z,484.00
2019-02-05T08:36:22.674Z,492.00
2019-02-05T08:37:22.658Z,496.00
2019-02-05T08:38:31.308Z,492.00
2019-02-05T08:40:27.117Z,500.00
2019-02-05T08:41:36.776Z,488.00
2019-02-05T08:43:31.549Z,496.00
2019-02-05T08:44:31.619Z,500.00
2019-02-05T08:45:31.580Z,500.00
2019-02-05T08:46:31.538Z,496.00
2019-02-05T08:47:31.505Z,496.00
2019-02-05T08:48:31.479Z,504.00
2019-02-05T08:49:31.473Z,504.00
2019-02-05T08:50:31.458Z,500.00
2019-02-05T08:51:31.442Z,508.00
2019-02-05T08:52:31.443Z,500.00
2019-02-05T08:53:31.421Z,492.00
2019-02-05T08:54:31.410Z,500.00
2019-02-05T08:55:31.396Z,496.00
2019-02-05T08:56:31.384Z,496.00
2019-02-05T08:57:31.383Z,496.00
2019-02-05T08:58:31.498Z,496.00
2019-02-05T08:59:31.341Z,496.00
2019-02-05T09:00:39.982Z,508.00
2019-02-05T09:02:35.829Z,508.00
2019-02-05T09:03:35.787Z,500.00
2019-02-05T09:04:35.766Z,488.00
2019-02-05T09:05:35.760Z,492.00
2019-02-05T09:06:44.393Z,492.00
2019-02-05T09:08:51.229Z,496.00
2019-02-05T09:09:41.204Z,500.00
2019-02-05T09:10:41.206Z,500.00
2019-02-05T09:11:41.180Z,488.00
2019-02-05T09:12:41.176Z,480.00
2019-02-05T09:13:41.152Z,496.00
2019-02-05T09:14:41.135Z,492.00
2019-02-05T09:15:41.122Z,480.00
2019-02-05T09:16:41.118Z,484.00
2019-02-05T09:17:41.099Z,492.00
2019-02-05T09:18:41.088Z,496.00
2019-02-05T09:19:50.750Z,492.00
2019-02-05T09:21:53.226Z,488.00
2019-02-05T09:22:54.160Z,484.00
2019-02-05T09:24:50.015Z,484.00
2019-02-05T09:25:58.633Z,484.00
2019-02-05T09:27:55.441Z,484.00
2019-02-05T09:29:04.913Z,484.00
2019-02-05T09:30:59.901Z,488.00
2019-02-05T09:31:59.871Z,496.00
2019-02-05T09:32:59.856Z,488.00
2019-02-05T09:33:59.860Z,480.00
2019-02-05T09:34:59.833Z,476.00
2019-02-05T09:35:59.829Z,476.00
2019-02-05T09:36:59.815Z,464.00
2019-02-05T09:37:59.793Z,476.00
2019-02-05T09:38:59.792Z,472.00
2019-02-05T09:39:59.772Z,464.00
2019-02-05T09:40:59.765Z,480.00
2019-02-05T09:41:59.750Z,480.00
2019-02-05T09:42:59.730Z,472.00
2019-02-05T09:43:59.723Z,472.00
2019-02-05T09:44:59.712Z,484.00
2019-02-05T09:45:59.703Z,472.00
2019-02-05T09:46:59.693Z,468.00
2019-02-05T09:47:59.691Z,476.00
2019-02-05T09:48:59.661Z,476.00
2019-02-05T09:49:59.650Z,472.00
2019-02-05T09:50:59.641Z,468.00
2019-02-05T09:51:59.640Z,468.00
2019-02-05T09:52:59.615Z,472.00
2019-02-05T09:53:59.601Z,468.00
2019-02-05T09:54:59.591Z,476.00
2019-02-05T09:55:59.594Z,472.00
2019-02-05T09:56:59.567Z,464.00
2019-02-05T09:57:59.554Z,468.00
2019-02-05T09:58:59.561Z,468.00
2019-02-05T09:59:59.529Z,460.00
2019-02-05T10:00:59.867Z,452.00
2019-02-05T10:01:59.508Z,464.00
2019-02-05T10:02:59.505Z,452.00
2019-02-05T10:03:59.487Z,460.00
2019-02-05T10:04:59.471Z,456.00
2019-02-05T10:05:59.454Z,452.00
2019-02-05T10:06:59.447Z,464.00
2019-02-05T10:07:59.442Z,460.00
2019-02-05T10:08:59.422Z,456.00
2019-02-05T10:09:59.458Z,464.00
2019-02-05T10:10:59.404Z,460.00
2019-02-05T10:11:59.383Z,464.00
2019-02-05T10:12:59.379Z,456.00
2019-02-05T10:13:59.397Z,456.00
2019-02-05T10:14:59.355Z,452.00
2019-02-05T10:15:59.352Z,456.00
2019-02-05T10:16:59.326Z,456.00
2019-02-05T10:17:59.322Z,452.00
2019-02-05T10:18:59.318Z,448.00
2019-02-05T10:19:59.294Z,448.00
2019-02-05T10:20:59.293Z,452.00
2019-02-05T10:21:59.268Z,452.00
2019-02-05T10:22:59.259Z,448.00
2019-02-05T10:23:59.246Z,460.00
2019-02-05T10:24:59.244Z,452.00
2019-02-05T10:25:59.248Z,448.00
2019-02-05T10:26:59.225Z,452.00
2019-02-05T10:27:59.204Z,448.00
2019-02-05T10:28:59.196Z,452.00
2019-02-05T10:29:59.656Z,452.00
2019-02-05T10:30:59.181Z,452.00
2019-02-05T10:31:59.258Z,460.00
2019-02-05T10:32:59.146Z,452.00
2019-02-05T10:33:59.136Z,452.00
2019-02-05T10:34:59.116Z,452.00
2019-02-05T10:36:01.326Z,448.00
2019-02-05T10:36:59.099Z,456.00
2019-02-05T10:37:59.104Z,452.00
2019-02-05T10:38:59.083Z,452.00
2019-02-05T10:39:59.062Z,448.00
2019-02-05T10:40:59.059Z,444.00
2019-02-05T10:41:59.042Z,456.00
2019-02-05T10:42:59.050Z,448.00
2019-02-05T10:43:59.053Z,436.00
2019-02-05T10:44:59.008Z,448.00
2019-02-05T10:45:58.996Z,444.00
2019-02-05T10:46:58.985Z,444.00
2019-02-05T10:47:58.987Z,448.00
2019-02-05T10:48:58.964Z,444.00
2019-02-05T10:49:58.990Z,444.00
2019-02-05T10:50:58.953Z,444.00
2019-02-05T10:51:58.941Z,440.00
2019-02-05T10:52:58.924Z,440.00
2019-02-05T10:53:58.915Z,440.00
2019-02-05T10:54:58.918Z,444.00
2019-02-05T10:55:58.890Z,444.00
2019-02-05T10:56:58.886Z,448.00
2019-02-05T10:57:58.876Z,448.00
2019-02-05T10:58:58.854Z,436.00
2019-02-05T11:00:08.482Z,444.00
2019-02-05T11:00:58.864Z,444.00
2019-02-05T11:01:58.825Z,440.00
2019-02-05T11:02:58.819Z,436.00
2019-02-05T11:03:58.805Z,448.00
2019-02-05T11:04:58.799Z,444.00
2019-02-05T11:05:58.777Z,444.00
2019-02-05T11:06:58.812Z,440.00
2019-02-05T11:07:58.764Z,444.00
2019-02-05T11:08:58.747Z,448.00
2019-02-05T11:09:58.752Z,444.00
2019-02-05T11:10:58.731Z,444.00
2019-02-05T11:11:58.718Z,444.00
2019-02-05T11:12:58.710Z,444.00
2019-02-05T11:13:58.732Z,444.00
2019-02-05T11:14:58.689Z,448.00
2019-02-05T11:15:58.681Z,448.00
2019-02-05T11:16:58.670Z,452.00
2019-02-05T11:17:58.655Z,444.00
2019-02-05T11:18:58.640Z,444.00
2019-02-05T11:19:58.689Z,448.00
2019-02-05T11:20:58.616Z,448.00
2019-02-05T11:21:58.607Z,448.00
2019-02-05T11:22:58.628Z,444.00
2019-02-05T11:23:58.591Z,448.00
2019-02-05T11:24:58.573Z,448.00
2019-02-05T11:25:58.572Z,452.00
2019-02-05T11:26:58.564Z,452.00
2019-02-05T11:27:58.544Z,456.00
2019-02-05T11:28:58.556Z,456.00
2019-02-05T11:29:58.531Z,456.00
2019-02-05T11:30:58.510Z,460.00
2019-02-05T11:31:58.520Z,460.00
2019-02-05T11:32:58.496Z,464.00
2019-02-05T11:33:58.512Z,468.00
2019-02-05T11:34:58.466Z,468.00
2019-02-05T11:36:07.116Z,472.00
2019-02-05T11:38:02.951Z,480.00
2019-02-05T11:39:02.922Z,480.00
2019-02-05T11:40:12.568Z,476.00
2019-02-05T11:41:56.514Z,484.00
2019-02-05T11:42:56.500Z,488.00
2019-02-05T11:43:56.483Z,492.00
2019-02-05T11:44:56.485Z,496.00
2019-02-05T11:45:56.474Z,504.00
2019-02-05T11:46:56.452Z,500.00
2019-02-05T11:47:56.441Z,500.00
2019-02-05T11:48:56.434Z,500.00
2019-02-05T11:49:56.425Z,500.00
2019-02-05T11:50:56.407Z,476.00
2019-02-05T11:51:56.397Z,464.00
2019-02-05T11:52:56.389Z,456.00
2019-02-05T11:53:56.402Z,452.00
2019-02-05T11:54:56.379Z,456.00
2019-02-05T11:55:56.371Z,460.00
2019-02-05T11:56:56.349Z,456.00
2019-02-05T11:58:05.006Z,456.00
2019-02-05T12:00:00.834Z,448.00
2019-02-05T12:01:10.323Z,460.00
2019-02-05T12:03:05.327Z,476.00
2019-02-05T12:04:05.294Z,476.00
2019-02-05T12:05:05.270Z,476.00
2019-02-05T12:06:05.254Z,472.00
2019-02-05T12:07:05.252Z,472.00
2019-02-05T12:08:05.277Z,472.00
2019-02-05T12:09:05.232Z,468.00
2019-02-05T12:10:05.215Z,464.00
2019-02-05T12:11:05.247Z,464.00
2019-02-05T12:12:05.199Z,464.00
2019-02-05T12:13:05.187Z,464.00
2019-02-05T12:14:05.183Z,468.00
2019-02-05T12:15:14.830Z,464.00
2019-02-05T12:17:09.644Z,460.00
2019-02-05T12:18:09.636Z,460.00
2019-02-05T12:19:09.609Z,456.00
2019-02-05T12:20:19.304Z,456.00
2019-02-05T12:22:14.092Z,452.00
2019-02-05T12:23:14.063Z,452.00
2019-02-05T12:24:14.051Z,448.00
2019-02-05T12:25:14.040Z,452.00
2019-02-05T12:26:14.038Z,456.00
2019-02-05T12:27:14.020Z,452.00
2019-02-05T12:28:14.023Z,444.00
2019-02-05T12:29:13.998Z,448.00
2019-02-05T12:30:13.990Z,452.00
2019-02-05T12:31:13.981Z,444.00
2019-02-05T12:32:13.972Z,452.00
2019-02-05T12:33:13.988Z,448.00
2019-02-05T12:34:13.962Z,460.00
2019-02-05T12:35:13.949Z,464.00
2019-02-05T12:36:13.935Z,452.00
2019-02-05T12:37:13.920Z,456.00
2019-02-05T12:38:13.916Z,452.00
2019-02-05T12:39:13.902Z,452.00
2019-02-05T12:40:13.898Z,460.00
2019-02-05T12:41:13.887Z,448.00
2019-02-05T12:42:13.877Z,452.00
2019-02-05T12:43:13.878Z,452.00
2019-02-05T12:44:13.894Z,456.00
2019-02-05T12:45:13.857Z,452.00
2019-02-05T12:46:13.843Z,452.00
2019-02-05T12:47:13.867Z,452.00
2019-02-05T12:48:13.825Z,448.00
2019-02-05T12:49:14.941Z,452.00
2019-02-05T12:50:13.812Z,452.00
2019-02-05T12:51:22.441Z,456.00
2019-02-05T12:53:19.277Z,456.00
2019-02-05T12:54:19.264Z,456.00
2019-02-05T12:55:19.256Z,456.00
2019-02-05T12:56:19.228Z,456.00
2019-02-05T12:57:19.229Z,456.00
2019-02-05T12:58:19.229Z,456.00
2019-02-05T12:59:19.228Z,472.00
2019-02-05T13:00:19.197Z,468.00
2019-02-05T13:01:19.229Z,460.00
2019-02-05T13:02:19.175Z,468.00
2019-02-05T13:03:19.193Z,460.00
2019-02-05T13:04:19.182Z,456.00
2019-02-05T13:05:19.172Z,460.00
2019-02-05T13:06:19.135Z,460.00
2019-02-05T13:07:19.130Z,460.00
2019-02-05T13:08:19.153Z,460.00
2019-02-05T13:09:19.116Z,468.00
2019-02-05T13:10:19.152Z,464.00
2019-02-05T13:11:19.107Z,472.00
2019-02-05T13:12:19.088Z,468.00
2019-02-05T13:13:19.108Z,472.00
2019-02-05T13:14:19.071Z,468.00
2019-02-05T13:15:19.056Z,464.00
2019-02-05T13:16:19.092Z,448.00
2019-02-05T13:17:19.033Z,468.00
2019-02-05T13:18:19.071Z,476.00
2019-02-05T13:19:19.057Z,488.00
2019-02-05T13:20:19.012Z,476.00
2019-02-05T13:21:19.035Z,472.00
2019-02-05T13:22:18.987Z,476.00
2019-02-05T13:23:18.994Z,508.00
2019-02-05T13:24:19.000Z,484.00
2019-02-05T13:25:18.998Z,480.00
2019-02-05T13:26:18.956Z,480.00
2019-02-05T13:27:18.977Z,476.00
2019-02-05T13:28:18.931Z,484.00
2019-02-05T13:29:18.924Z,488.00
2019-02-05T13:30:18.951Z,492.00
2019-02-05T13:31:18.901Z,472.00
2019-02-05T13:32:18.929Z,476.00
2019-02-05T13:33:18.895Z,480.00
2019-02-05T13:34:18.898Z,480.00